sensor_id;sensor_type;location;lat;lon;timestamp;temperature;humidity
32400;DHT22;45045;45.440;9.178;2024-03-08T00:00:05;15.00;99.90
32400;DHT22;45045;45.440;9.178;2024-03-08T00:02:42;15.10;99.90
32400;DHT22;45045;45.440;9.178;2024-03-08T00:05:08;14.90;99.90
32400;DHT22;45045;45.440;9.178;2024-03-08T00:07:38;14.60;99.90
32400;DHT22;45045;45.440;9.178;2024-03-08T00:10:05;14.50;99.90
32400;DHT22;45045;45.440;9.178;2024-03-08T00:12:31;14.40;99.90
32400;DHT22;45045;45.440;9.178;2024-03-08T00:14:57;14.30;99.90
32400;DHT22;45045;45.440;9.178;2024-03-08T00:17:23;14.40;99.90
32400;DHT22;45045;45.440;9.178;2024-03-08T00:19:49;14.30;99.90
32400;DHT22;45045;45.440;9.178;2024-03-08T00:22:18;14.30;99.90
32400;DHT22;45045;45.440;9.178;2024-03-08T00:24:43;14.30;99.90
32400;DHT22;45045;45.440;9.178;2024-03-08T00:27:09;14.20;99.90
32400;DHT22;45045;45.440;9.178;2024-03-08T00:29:36;14.20;99.90
32400;DHT22;45045;45.440;9.178;2024-03-08T00:32:04;14.20;99.90
32400;DHT22;45045;45.440;9.178;2024-03-08T00:34:30;14.10;99.90
32400;DHT22;45045;45.440;9.178;2024-03-08T00:36:57;14.10;99.90
32400;DHT22;45045;45.440;9.178;2024-03-08T00:39:23;14.00;99.90
32400;DHT22;45045;45.440;9.178;2024-03-08T00:41:49;14.00;99.90
32400;DHT22;45045;45.440;9.178;2024-03-08T00:44:15;14.00;99.90
32400;DHT22;45045;45.440;9.178;2024-03-08T00:46:40;14.00;99.90
32400;DHT22;45045;45.440;9.178;2024-03-08T00:49:06;14.00;99.90
32400;DHT22;45045;45.440;9.178;2024-03-08T00:51:32;14.00;99.90
32400;DHT22;45045;45.440;9.178;2024-03-08T00:53:58;13.90;99.90
32400;DHT22;45045;45.440;9.178;2024-03-08T00:56:23;13.80;99.90
32400;DHT22;45045;45.440;9.178;2024-03-08T00:58:50;13.80;99.90
32400;DHT22;45045;45.440;9.178;2024-03-08T01:01:18;13.80;99.90
32400;DHT22;45045;45.440;9.178;2024-03-08T01:03:44;13.70;99.90
32400;DHT22;45045;45.440;9.178;2024-03-08T01:06:09;13.70;99.90
32400;DHT22;45045;45.440;9.178;2024-03-08T01:08:37;13.70;99.90
32400;DHT22;45045;45.440;9.178;2024-03-08T01:11:06;13.60;99.90
32400;DHT22;45045;45.440;9.178;2024-03-08T01:13:32;13.60;99.90
32400;DHT22;45045;45.440;9.178;2024-03-08T01:15:58;13.60;99.90
32400;DHT22;45045;45.440;9.178;2024-03-08T01:18:23;13.60;99.90
32400;DHT22;45045;45.440;9.178;2024-03-08T01:20:49;13.60;99.90
32400;DHT22;45045;45.440;9.178;2024-03-08T01:23:15;13.50;99.90
32400;DHT22;45045;45.440;9.178;2024-03-08T01:25:40;13.30;99.90
32400;DHT22;45045;45.440;9.178;2024-03-08T01:28:07;13.40;99.90
32400;DHT22;45045;45.440;9.178;2024-03-08T01:30:32;13.40;99.90
32400;DHT22;45045;45.440;9.178;2024-03-08T01:33:00;13.40;99.90
32400;DHT22;45045;45.440;9.178;2024-03-08T01:35:26;13.40;99.90
32400;DHT22;45045;45.440;9.178;2024-03-08T01:37:52;13.40;99.90
32400;DHT22;45045;45.440;9.178;2024-03-08T01:40:18;13.30;99.90
32400;DHT22;45045;45.440;9.178;2024-03-08T01:42:44;13.30;99.90
32400;DHT22;45045;45.440;9.178;2024-03-08T01:45:10;13.10;99.90
32400;DHT22;45045;45.440;9.178;2024-03-08T01:47:36;12.90;99.90
32400;DHT22;45045;45.440;9.178;2024-03-08T01:50:02;13.00;99.90
32400;DHT22;45045;45.440;9.178;2024-03-08T01:52:32;12.90;99.90
32400;DHT22;45045;45.440;9.178;2024-03-08T01:55:02;13.00;99.90
32400;DHT22;45045;45.440;9.178;2024-03-08T01:57:31;13.00;99.90
32400;DHT22;45045;45.440;9.178;2024-03-08T01:59:57;12.90;99.90
32400;DHT22;45045;45.440;9.178;2024-03-08T02:02:23;13.00;99.90
32400;DHT22;45045;45.440;9.178;2024-03-08T02:04:53;13.00;99.90
32400;DHT22;45045;45.440;9.178;2024-03-08T02:07:18;12.90;99.90
32400;DHT22;45045;45.440;9.178;2024-03-08T02:09:44;12.90;99.90
32400;DHT22;45045;45.440;9.178;2024-03-08T02:12:10;12.80;99.90
32400;DHT22;45045;45.440;9.178;2024-03-08T02:14:35;12.80;99.90
32400;DHT22;45045;45.440;9.178;2024-03-08T02:17:02;12.70;99.90
32400;DHT22;45045;45.440;9.178;2024-03-08T02:19:28;12.70;99.90
32400;DHT22;45045;45.440;9.178;2024-03-08T02:21:54;12.80;99.90
32400;DHT22;45045;45.440;9.178;2024-03-08T02:24:20;12.80;99.90
32400;DHT22;45045;45.440;9.178;2024-03-08T02:26:46;12.70;99.90
32400;DHT22;45045;45.440;9.178;2024-03-08T02:29:12;12.70;99.90
32400;DHT22;45045;45.440;9.178;2024-03-08T02:31:39;12.70;99.90
32400;DHT22;45045;45.440;9.178;2024-03-08T02:34:04;12.60;99.90
32400;DHT22;45045;45.440;9.178;2024-03-08T02:36:30;12.60;99.90
32400;DHT22;45045;45.440;9.178;2024-03-08T02:39:03;12.60;99.90
32400;DHT22;45045;45.440;9.178;2024-03-08T02:41:30;12.60;99.90
32400;DHT22;45045;45.440;9.178;2024-03-08T02:43:56;12.50;99.90
32400;DHT22;45045;45.440;9.178;2024-03-08T02:46:22;12.50;99.90
32400;DHT22;45045;45.440;9.178;2024-03-08T02:48:47;12.60;99.90
32400;DHT22;45045;45.440;9.178;2024-03-08T02:51:13;12.50;99.90
32400;DHT22;45045;45.440;9.178;2024-03-08T02:53:41;12.50;99.90
32400;DHT22;45045;45.440;9.178;2024-03-08T02:56:08;12.50;99.90
32400;DHT22;45045;45.440;9.178;2024-03-08T02:58:38;12.60;99.90
32400;DHT22;45045;45.440;9.178;2024-03-08T03:01:04;12.50;99.90
32400;DHT22;45045;45.440;9.178;2024-03-08T03:03:29;12.50;99.90
32400;DHT22;45045;45.440;9.178;2024-03-08T03:05:55;12.50;99.90
32400;DHT22;45045;45.440;9.178;2024-03-08T03:08:21;12.40;99.90
32400;DHT22;45045;45.440;9.178;2024-03-08T03:10:47;12.30;99.90
32400;DHT22;45045;45.440;9.178;2024-03-08T03:13:13;12.40;99.90
32400;DHT22;45045;45.440;9.178;2024-03-08T03:15:39;12.40;99.90
32400;DHT22;45045;45.440;9.178;2024-03-08T03:18:07;12.40;99.90
32400;DHT22;45045;45.440;9.178;2024-03-08T03:20:33;12.40;99.90
32400;DHT22;45045;45.440;9.178;2024-03-08T03:23:02;12.40;99.90
32400;DHT22;45045;45.440;9.178;2024-03-08T03:25:28;12.30;99.90
32400;DHT22;45045;45.440;9.178;2024-03-08T03:27:59;12.20;99.90
32400;DHT22;45045;45.440;9.178;2024-03-08T03:30:25;12.20;99.90
32400;DHT22;45045;45.440;9.178;2024-03-08T03:32:52;12.20;99.90
32400;DHT22;45045;45.440;9.178;2024-03-08T03:35:20;12.30;99.90
32400;DHT22;45045;45.440;9.178;2024-03-08T03:37:47;12.20;99.90
32400;DHT22;45045;45.440;9.178;2024-03-08T03:40:31;12.30;99.90
32400;DHT22;45045;45.440;9.178;2024-03-08T03:42:57;12.30;99.90
32400;DHT22;45045;45.440;9.178;2024-03-08T03:45:23;12.30;99.90
32400;DHT22;45045;45.440;9.178;2024-03-08T03:47:49;12.30;99.90
32400;DHT22;45045;45.440;9.178;2024-03-08T03:50:15;12.20;99.90
32400;DHT22;45045;45.440;9.178;2024-03-08T03:52:41;12.30;99.90
32400;DHT22;45045;45.440;9.178;2024-03-08T03:55:08;12.20;99.90
32400;DHT22;45045;45.440;9.178;2024-03-08T03:57:34;12.20;99.90
32400;DHT22;45045;45.440;9.178;2024-03-08T03:59:59;12.20;99.90
32400;DHT22;45045;45.440;9.178;2024-03-08T04:02:25;12.20;99.90
32400;DHT22;45045;45.440;9.178;2024-03-08T04:04:52;12.20;99.90
32400;DHT22;45045;45.440;9.178;2024-03-08T04:07:20;12.20;99.90
32400;DHT22;45045;45.440;9.178;2024-03-08T04:09:46;12.20;99.90
32400;DHT22;45045;45.440;9.178;2024-03-08T04:12:11;12.20;99.90
32400;DHT22;45045;45.440;9.178;2024-03-08T04:14:41;12.20;99.90
32400;DHT22;45045;45.440;9.178;2024-03-08T04:17:07;12.10;99.90
32400;DHT22;45045;45.440;9.178;2024-03-08T04:19:34;12.20;99.90
32400;DHT22;45045;45.440;9.178;2024-03-08T04:22:00;12.20;99.90
32400;DHT22;45045;45.440;9.178;2024-03-08T04:24:26;12.20;99.90
32400;DHT22;45045;45.440;9.178;2024-03-08T04:26:52;12.20;99.90
32400;DHT22;45045;45.440;9.178;2024-03-08T04:29:18;12.30;99.90
32400;DHT22;45045;45.440;9.178;2024-03-08T04:31:44;12.30;99.90
32400;DHT22;45045;45.440;9.178;2024-03-08T04:34:10;12.30;99.90
32400;DHT22;45045;45.440;9.178;2024-03-08T04:36:36;12.30;99.90
32400;DHT22;45045;45.440;9.178;2024-03-08T04:39:02;12.30;99.90
32400;DHT22;45045;45.440;9.178;2024-03-08T04:41:28;12.30;99.90
32400;DHT22;45045;45.440;9.178;2024-03-08T04:43:56;12.20;99.90
32400;DHT22;45045;45.440;9.178;2024-03-08T04:46:23;12.30;99.90
32400;DHT22;45045;45.440;9.178;2024-03-08T04:48:49;12.30;99.90
32400;DHT22;45045;45.440;9.178;2024-03-08T04:51:15;12.20;99.90
32400;DHT22;45045;45.440;9.178;2024-03-08T04:53:41;12.20;99.90
32400;DHT22;45045;45.440;9.178;2024-03-08T04:56:07;12.30;99.90
32400;DHT22;45045;45.440;9.178;2024-03-08T04:58:35;12.30;99.90
32400;DHT22;45045;45.440;9.178;2024-03-08T05:01:01;12.20;99.90
32400;DHT22;45045;45.440;9.178;2024-03-08T05:03:27;12.10;99.90
32400;DHT22;45045;45.440;9.178;2024-03-08T05:05:53;12.10;99.90
32400;DHT22;45045;45.440;9.178;2024-03-08T05:08:19;12.00;99.90
32400;DHT22;45045;45.440;9.178;2024-03-08T05:10:45;11.90;99.90
32400;DHT22;45045;45.440;9.178;2024-03-08T05:13:12;11.90;99.90
32400;DHT22;45045;45.440;9.178;2024-03-08T05:15:38;12.00;99.90
32400;DHT22;45045;45.440;9.178;2024-03-08T05:18:05;11.90;99.90
32400;DHT22;45045;45.440;9.178;2024-03-08T05:20:30;11.90;99.90
32400;DHT22;45045;45.440;9.178;2024-03-08T05:22:56;11.90;99.90
32400;DHT22;45045;45.440;9.178;2024-03-08T05:25:25;11.90;99.90
32400;DHT22;45045;45.440;9.178;2024-03-08T05:27:52;11.80;99.90
32400;DHT22;45045;45.440;9.178;2024-03-08T05:30:17;11.80;99.90
32400;DHT22;45045;45.440;9.178;2024-03-08T05:32:43;11.80;99.90
32400;DHT22;45045;45.440;9.178;2024-03-08T05:35:12;11.70;99.90
32400;DHT22;45045;45.440;9.178;2024-03-08T05:37:40;11.80;99.90
32400;DHT22;45045;45.440;9.178;2024-03-08T05:40:06;11.70;99.90
32400;DHT22;45045;45.440;9.178;2024-03-08T05:42:35;11.70;99.90
32400;DHT22;45045;45.440;9.178;2024-03-08T05:45:02;11.80;99.90
32400;DHT22;45045;45.440;9.178;2024-03-08T05:47:28;11.70;99.90
32400;DHT22;45045;45.440;9.178;2024-03-08T05:49:54;11.70;99.90
32400;DHT22;45045;45.440;9.178;2024-03-08T05:52:20;11.60;99.90
32400;DHT22;45045;45.440;9.178;2024-03-08T05:54:45;11.60;99.90
32400;DHT22;45045;45.440;9.178;2024-03-08T05:57:12;11.70;99.90
32400;DHT22;45045;45.440;9.178;2024-03-08T05:59:39;11.60;99.90
32400;DHT22;45045;45.440;9.178;2024-03-08T06:02:05;11.60;99.90
32400;DHT22;45045;45.440;9.178;2024-03-08T06:04:31;11.70;99.90
32400;DHT22;45045;45.440;9.178;2024-03-08T06:06:57;11.70;99.90
32400;DHT22;45045;45.440;9.178;2024-03-08T06:09:24;11.70;99.90
32400;DHT22;45045;45.440;9.178;2024-03-08T06:11:50;11.60;99.90
32400;DHT22;45045;45.440;9.178;2024-03-08T06:14:16;11.80;99.90
32400;DHT22;45045;45.440;9.178;2024-03-08T06:16:47;11.70;99.90
32400;DHT22;45045;45.440;9.178;2024-03-08T06:19:15;11.90;99.90
32400;DHT22;45045;45.440;9.178;2024-03-08T06:21:41;11.90;99.90
32400;DHT22;45045;45.440;9.178;2024-03-08T06:24:07;11.70;99.90
32400;DHT22;45045;45.440;9.178;2024-03-08T06:26:33;11.60;99.90
32400;DHT22;45045;45.440;9.178;2024-03-08T06:28:59;11.90;99.90
32400;DHT22;45045;45.440;9.178;2024-03-08T06:31:25;11.90;99.90
32400;DHT22;45045;45.440;9.178;2024-03-08T06:33:50;11.80;99.90
32400;DHT22;45045;45.440;9.178;2024-03-08T06:36:17;11.80;99.90
32400;DHT22;45045;45.440;9.178;2024-03-08T06:38:48;11.80;99.90
32400;DHT22;45045;45.440;9.178;2024-03-08T06:41:14;11.80;99.90
32400;DHT22;45045;45.440;9.178;2024-03-08T06:43:43;11.70;99.90
32400;DHT22;45045;45.440;9.178;2024-03-08T06:46:09;11.60;99.90
32400;DHT22;45045;45.440;9.178;2024-03-08T06:48:36;11.70;99.90
32400;DHT22;45045;45.440;9.178;2024-03-08T06:51:05;12.00;99.90
32400;DHT22;45045;45.440;9.178;2024-03-08T06:53:31;11.90;99.90
32400;DHT22;45045;45.440;9.178;2024-03-08T06:55:58;12.30;99.90
32400;DHT22;45045;45.440;9.178;2024-03-08T06:58:24;12.50;99.90
32400;DHT22;45045;45.440;9.178;2024-03-08T07:00:50;12.40;99.90
32400;DHT22;45045;45.440;9.178;2024-03-08T07:03:19;12.20;99.90
32400;DHT22;45045;45.440;9.178;2024-03-08T07:05:45;12.20;99.90
32400;DHT22;45045;45.440;9.178;2024-03-08T07:08:10;12.50;99.90
32400;DHT22;45045;45.440;9.178;2024-03-08T07:10:39;12.60;99.90
32400;DHT22;45045;45.440;9.178;2024-03-08T07:13:07;12.40;99.90
32400;DHT22;45045;45.440;9.178;2024-03-08T07:15:33;12.50;99.90
32400;DHT22;45045;45.440;9.178;2024-03-08T07:17:58;12.40;99.90
32400;DHT22;45045;45.440;9.178;2024-03-08T07:20:25;12.30;99.90
32400;DHT22;45045;45.440;9.178;2024-03-08T07:22:51;12.40;99.90
32400;DHT22;45045;45.440;9.178;2024-03-08T07:25:17;12.50;99.90
32400;DHT22;45045;45.440;9.178;2024-03-08T07:27:52;12.90;99.90
32400;DHT22;45045;45.440;9.178;2024-03-08T07:30:19;12.70;99.90
32400;DHT22;45045;45.440;9.178;2024-03-08T07:33:04;12.80;99.90
32400;DHT22;45045;45.440;9.178;2024-03-08T07:35:30;13.00;99.90
32400;DHT22;45045;45.440;9.178;2024-03-08T07:37:56;13.20;99.90
32400;DHT22;45045;45.440;9.178;2024-03-08T07:40:23;12.60;99.90
32400;DHT22;45045;45.440;9.178;2024-03-08T07:42:49;12.40;99.90
32400;DHT22;45045;45.440;9.178;2024-03-08T07:45:15;12.20;99.90
32400;DHT22;45045;45.440;9.178;2024-03-08T07:47:42;12.10;99.90
32400;DHT22;45045;45.440;9.178;2024-03-08T07:50:07;12.00;99.90
32400;DHT22;45045;45.440;9.178;2024-03-08T07:52:34;12.10;99.90
32400;DHT22;45045;45.440;9.178;2024-03-08T07:55:01;12.00;99.90
32400;DHT22;45045;45.440;9.178;2024-03-08T07:57:26;12.30;99.90
32400;DHT22;45045;45.440;9.178;2024-03-08T07:59:52;12.50;99.90
32400;DHT22;45045;45.440;9.178;2024-03-08T08:02:18;12.40;99.90
32400;DHT22;45045;45.440;9.178;2024-03-08T08:04:43;12.30;99.90
32400;DHT22;45045;45.440;9.178;2024-03-08T08:07:10;12.30;99.90
32400;DHT22;45045;45.440;9.178;2024-03-08T08:09:36;12.50;99.90
32400;DHT22;45045;45.440;9.178;2024-03-08T08:12:03;12.80;99.90
32400;DHT22;45045;45.440;9.178;2024-03-08T08:14:29;13.10;99.90
32400;DHT22;45045;45.440;9.178;2024-03-08T08:16:56;13.40;99.90
32400;DHT22;45045;45.440;9.178;2024-03-08T08:19:23;13.30;99.90
32400;DHT22;45045;45.440;9.178;2024-03-08T08:21:48;13.60;99.90
32400;DHT22;45045;45.440;9.178;2024-03-08T08:24:14;13.80;99.90
32400;DHT22;45045;45.440;9.178;2024-03-08T08:26:40;13.60;99.90
32400;DHT22;45045;45.440;9.178;2024-03-08T08:29:07;13.60;99.90
32400;DHT22;45045;45.440;9.178;2024-03-08T08:31:32;13.50;99.90
32400;DHT22;45045;45.440;9.178;2024-03-08T08:33:59;13.50;99.90
32400;DHT22;45045;45.440;9.178;2024-03-08T08:36:25;13.40;99.90
32400;DHT22;45045;45.440;9.178;2024-03-08T08:38:51;13.40;99.90
32400;DHT22;45045;45.440;9.178;2024-03-08T08:41:19;13.70;99.90
32400;DHT22;45045;45.440;9.178;2024-03-08T08:43:47;13.40;99.90
32400;DHT22;45045;45.440;9.178;2024-03-08T08:46:17;13.80;99.90
32400;DHT22;45045;45.440;9.178;2024-03-08T08:48:43;14.70;99.90
32400;DHT22;45045;45.440;9.178;2024-03-08T08:51:14;14.90;99.90
32400;DHT22;45045;45.440;9.178;2024-03-08T08:53:41;15.00;99.90
32400;DHT22;45045;45.440;9.178;2024-03-08T08:56:11;14.80;99.90
32400;DHT22;45045;45.440;9.178;2024-03-08T08:58:39;15.10;99.90
32400;DHT22;45045;45.440;9.178;2024-03-08T09:01:05;15.60;99.90
32400;DHT22;45045;45.440;9.178;2024-03-08T09:03:33;16.00;99.90
32400;DHT22;45045;45.440;9.178;2024-03-08T09:06:00;16.20;99.90
32400;DHT22;45045;45.440;9.178;2024-03-08T09:08:28;15.90;99.90
32400;DHT22;45045;45.440;9.178;2024-03-08T09:10:54;15.50;99.90
32400;DHT22;45045;45.440;9.178;2024-03-08T09:13:19;16.00;99.90
32400;DHT22;45045;45.440;9.178;2024-03-08T09:15:45;16.30;99.90
32400;DHT22;45045;45.440;9.178;2024-03-08T09:18:11;16.50;99.90
32400;DHT22;45045;45.440;9.178;2024-03-08T09:20:36;16.00;99.90
32400;DHT22;45045;45.440;9.178;2024-03-08T09:23:03;15.70;99.90
32400;DHT22;45045;45.440;9.178;2024-03-08T09:25:29;15.50;99.90
32400;DHT22;45045;45.440;9.178;2024-03-08T09:27:55;15.40;99.90
32400;DHT22;45045;45.440;9.178;2024-03-08T09:30:21;15.50;99.90
32400;DHT22;45045;45.440;9.178;2024-03-08T09:32:47;15.40;99.90
32400;DHT22;45045;45.440;9.178;2024-03-08T09:35:13;15.40;99.90
32400;DHT22;45045;45.440;9.178;2024-03-08T09:37:38;15.30;99.90
32400;DHT22;45045;45.440;9.178;2024-03-08T09:40:05;15.20;99.90
32400;DHT22;45045;45.440;9.178;2024-03-08T09:42:35;15.30;99.90
32400;DHT22;45045;45.440;9.178;2024-03-08T09:45:10;15.50;99.90
32400;DHT22;45045;45.440;9.178;2024-03-08T09:47:43;15.50;99.90
32400;DHT22;45045;45.440;9.178;2024-03-08T09:50:09;15.60;99.90
32400;DHT22;45045;45.440;9.178;2024-03-08T09:52:47;15.40;99.90
32400;DHT22;45045;45.440;9.178;2024-03-08T09:55:13;14.90;99.90
32400;DHT22;45045;45.440;9.178;2024-03-08T09:57:40;15.20;99.90
32400;DHT22;45045;45.440;9.178;2024-03-08T10:00:06;15.50;99.90
32400;DHT22;45045;45.440;9.178;2024-03-08T10:02:50;15.70;99.90
32400;DHT22;45045;45.440;9.178;2024-03-08T10:05:18;15.90;99.90
32400;DHT22;45045;45.440;9.178;2024-03-08T10:07:44;15.80;99.90
32400;DHT22;45045;45.440;9.178;2024-03-08T10:10:09;16.00;99.90
32400;DHT22;45045;45.440;9.178;2024-03-08T10:12:38;16.10;99.90
32400;DHT22;45045;45.440;9.178;2024-03-08T10:15:07;16.20;99.90
32400;DHT22;45045;45.440;9.178;2024-03-08T10:17:34;16.10;99.90
32400;DHT22;45045;45.440;9.178;2024-03-08T10:20:00;16.40;99.90
32400;DHT22;45045;45.440;9.178;2024-03-08T10:22:26;16.70;99.90
32400;DHT22;45045;45.440;9.178;2024-03-08T10:24:52;16.40;99.90
32400;DHT22;45045;45.440;9.178;2024-03-08T10:27:18;16.30;99.90
32400;DHT22;45045;45.440;9.178;2024-03-08T10:29:47;16.40;99.90
32400;DHT22;45045;45.440;9.178;2024-03-08T10:32:13;16.20;99.90
32400;DHT22;45045;45.440;9.178;2024-03-08T10:34:39;16.30;99.90
32400;DHT22;45045;45.440;9.178;2024-03-08T10:37:05;16.20;99.90
32400;DHT22;45045;45.440;9.178;2024-03-08T10:39:36;16.40;99.90
32400;DHT22;45045;45.440;9.178;2024-03-08T10:42:04;16.10;99.90
32400;DHT22;45045;45.440;9.178;2024-03-08T10:47:03;16.00;99.90
32400;DHT22;45045;45.440;9.178;2024-03-08T10:52:34;15.80;99.90
32400;DHT22;45045;45.440;9.178;2024-03-08T10:55:01;15.80;99.90
32400;DHT22;45045;45.440;9.178;2024-03-08T10:57:27;15.50;99.90
32400;DHT22;45045;45.440;9.178;2024-03-08T10:59:55;15.40;99.90
32400;DHT22;45045;45.440;9.178;2024-03-08T11:02:20;15.30;99.90
32400;DHT22;45045;45.440;9.178;2024-03-08T11:04:48;15.20;99.90
32400;DHT22;45045;45.440;9.178;2024-03-08T11:07:15;15.30;99.90
32400;DHT22;45045;45.440;9.178;2024-03-08T11:09:44;15.30;99.90
32400;DHT22;45045;45.440;9.178;2024-03-08T11:14:48;15.10;99.90
32400;DHT22;45045;45.440;9.178;2024-03-08T11:20:09;15.10;99.90
32400;DHT22;45045;45.440;9.178;2024-03-08T11:22:41;15.10;99.90
32400;DHT22;45045;45.440;9.178;2024-03-08T11:25:39;15.10;99.90
32400;DHT22;45045;45.440;9.178;2024-03-08T11:28:18;15.00;99.90
32400;DHT22;45045;45.440;9.178;2024-03-08T11:33:35;14.80;99.90
32400;DHT22;45045;45.440;9.178;2024-03-08T11:36:08;15.00;99.90
32400;DHT22;45045;45.440;9.178;2024-03-08T11:38:46;15.10;99.90
32400;DHT22;45045;45.440;9.178;2024-03-08T11:41:21;15.50;99.90
32400;DHT22;45045;45.440;9.178;2024-03-08T11:43:48;15.60;99.90
32400;DHT22;45045;45.440;9.178;2024-03-08T11:46:15;15.00;99.90
32400;DHT22;45045;45.440;9.178;2024-03-08T11:48:42;14.70;99.90
32400;DHT22;45045;45.440;9.178;2024-03-08T11:51:12;14.80;99.90
32400;DHT22;45045;45.440;9.178;2024-03-08T11:53:39;14.80;99.90
32400;DHT22;45045;45.440;9.178;2024-03-08T11:56:10;14.80;99.90
32400;DHT22;45045;45.440;9.178;2024-03-08T11:58:37;14.80;99.90
32400;DHT22;45045;45.440;9.178;2024-03-08T12:01:10;14.80;99.90
32400;DHT22;45045;45.440;9.178;2024-03-08T12:03:39;14.80;99.90
32400;DHT22;45045;45.440;9.178;2024-03-08T12:06:05;14.70;99.90
32400;DHT22;45045;45.440;9.178;2024-03-08T12:08:31;14.80;99.90
32400;DHT22;45045;45.440;9.178;2024-03-08T12:10:57;14.80;99.90
32400;DHT22;45045;45.440;9.178;2024-03-08T12:13:27;15.00;99.90
32400;DHT22;45045;45.440;9.178;2024-03-08T12:16:00;15.10;99.90
32400;DHT22;45045;45.440;9.178;2024-03-08T12:18:33;15.20;99.90
32400;DHT22;45045;45.440;9.178;2024-03-08T12:21:10;15.50;99.90
32400;DHT22;45045;45.440;9.178;2024-03-08T12:23:36;15.60;99.90
32400;DHT22;45045;45.440;9.178;2024-03-08T12:26:18;15.60;99.90
32400;DHT22;45045;45.440;9.178;2024-03-08T12:28:45;15.60;99.90
32400;DHT22;45045;45.440;9.178;2024-03-08T12:31:16;15.50;99.90
32400;DHT22;45045;45.440;9.178;2024-03-08T12:33:55;15.70;99.90
32400;DHT22;45045;45.440;9.178;2024-03-08T12:36:25;15.60;99.90
32400;DHT22;45045;45.440;9.178;2024-03-08T12:38:52;15.60;99.90
32400;DHT22;45045;45.440;9.178;2024-03-08T12:41:20;15.60;99.90
32400;DHT22;45045;45.440;9.178;2024-03-08T12:43:47;15.40;99.90
32400;DHT22;45045;45.440;9.178;2024-03-08T12:46:16;15.30;99.90
32400;DHT22;45045;45.440;9.178;2024-03-08T12:48:43;15.30;99.90
32400;DHT22;45045;45.440;9.178;2024-03-08T12:51:13;15.40;99.90
32400;DHT22;45045;45.440;9.178;2024-03-08T12:53:39;15.20;99.90
32400;DHT22;45045;45.440;9.178;2024-03-08T12:56:06;15.10;99.90
32400;DHT22;45045;45.440;9.178;2024-03-08T12:58:35;14.80;99.90
32400;DHT22;45045;45.440;9.178;2024-03-08T13:01:05;14.90;99.90
32400;DHT22;45045;45.440;9.178;2024-03-08T13:03:36;14.80;99.90
32400;DHT22;45045;45.440;9.178;2024-03-08T13:06:03;14.70;99.90
32400;DHT22;45045;45.440;9.178;2024-03-08T13:08:37;14.80;99.90
32400;DHT22;45045;45.440;9.178;2024-03-08T13:11:05;14.90;99.90
32400;DHT22;45045;45.440;9.178;2024-03-08T13:13:30;15.10;99.90
32400;DHT22;45045;45.440;9.178;2024-03-08T13:15:56;16.00;99.90
32400;DHT22;45045;45.440;9.178;2024-03-08T13:18:23;16.70;99.90
32400;DHT22;45045;45.440;9.178;2024-03-08T13:20:48;17.20;99.90
32400;DHT22;45045;45.440;9.178;2024-03-08T13:23:17;17.50;99.90
32400;DHT22;45045;45.440;9.178;2024-03-08T13:25:43;17.70;99.90
32400;DHT22;45045;45.440;9.178;2024-03-08T13:28:09;17.90;99.90
32400;DHT22;45045;45.440;9.178;2024-03-08T13:30:36;18.00;99.90
32400;DHT22;45045;45.440;9.178;2024-03-08T13:33:02;17.10;99.90
32400;DHT22;45045;45.440;9.178;2024-03-08T13:35:33;16.10;99.90
32400;DHT22;45045;45.440;9.178;2024-03-08T13:38:00;15.60;99.90
32400;DHT22;45045;45.440;9.178;2024-03-08T13:40:28;15.00;99.90
32400;DHT22;45045;45.440;9.178;2024-03-08T13:42:54;14.70;99.90
32400;DHT22;45045;45.440;9.178;2024-03-08T13:45:20;14.60;99.90
32400;DHT22;45045;45.440;9.178;2024-03-08T13:47:49;14.60;99.90
32400;DHT22;45045;45.440;9.178;2024-03-08T13:50:17;14.60;99.90
32400;DHT22;45045;45.440;9.178;2024-03-08T13:52:47;14.50;99.90
32400;DHT22;45045;45.440;9.178;2024-03-08T13:55:19;14.60;99.90
32400;DHT22;45045;45.440;9.178;2024-03-08T13:57:47;14.60;99.90
32400;DHT22;45045;45.440;9.178;2024-03-08T14:00:14;14.80;99.90
32400;DHT22;45045;45.440;9.178;2024-03-08T14:02:40;14.90;99.90
32400;DHT22;45045;45.440;9.178;2024-03-08T14:05:09;14.90;99.90
32400;DHT22;45045;45.440;9.178;2024-03-08T14:07:36;14.70;99.90
32400;DHT22;45045;45.440;9.178;2024-03-08T14:10:02;14.50;99.90
32400;DHT22;45045;45.440;9.178;2024-03-08T14:12:28;14.60;99.90
32400;DHT22;45045;45.440;9.178;2024-03-08T14:14:55;14.70;99.90
32400;DHT22;45045;45.440;9.178;2024-03-08T14:17:25;14.60;99.90
32400;DHT22;45045;45.440;9.178;2024-03-08T14:19:52;14.50;99.90
32400;DHT22;45045;45.440;9.178;2024-03-08T14:22:18;14.40;99.90
32400;DHT22;45045;45.440;9.178;2024-03-08T14:24:44;14.40;99.90
32400;DHT22;45045;45.440;9.178;2024-03-08T14:27:10;14.30;99.90
32400;DHT22;45045;45.440;9.178;2024-03-08T14:29:37;14.30;99.90
32400;DHT22;45045;45.440;9.178;2024-03-08T14:32:09;14.30;99.90
32400;DHT22;45045;45.440;9.178;2024-03-08T14:34:35;14.10;99.90
32400;DHT22;45045;45.440;9.178;2024-03-08T14:37:02;14.10;99.90
32400;DHT22;45045;45.440;9.178;2024-03-08T14:39:31;14.30;99.90
32400;DHT22;45045;45.440;9.178;2024-03-08T14:41:59;14.30;99.90
32400;DHT22;45045;45.440;9.178;2024-03-08T14:44:25;14.10;99.90
32400;DHT22;45045;45.440;9.178;2024-03-08T14:46:52;14.00;99.90
32400;DHT22;45045;45.440;9.178;2024-03-08T14:49:18;13.90;99.90
32400;DHT22;45045;45.440;9.178;2024-03-08T14:51:47;13.90;99.90
32400;DHT22;45045;45.440;9.178;2024-03-08T14:54:12;13.90;99.90
32400;DHT22;45045;45.440;9.178;2024-03-08T14:56:38;13.90;99.90
32400;DHT22;45045;45.440;9.178;2024-03-08T14:59:06;13.90;99.90
32400;DHT22;45045;45.440;9.178;2024-03-08T15:01:32;14.00;99.90
32400;DHT22;45045;45.440;9.178;2024-03-08T15:04:04;15.10;99.90
32400;DHT22;45045;45.440;9.178;2024-03-08T15:06:40;16.00;99.90
32400;DHT22;45045;45.440;9.178;2024-03-08T15:09:08;16.60;99.90
32400;DHT22;45045;45.440;9.178;2024-03-08T15:11:46;16.90;99.90
32400;DHT22;45045;45.440;9.178;2024-03-08T15:14:14;17.20;99.90
32400;DHT22;45045;45.440;9.178;2024-03-08T15:16:41;16.30;99.90
32400;DHT22;45045;45.440;9.178;2024-03-08T15:19:08;15.30;99.90
32400;DHT22;45045;45.440;9.178;2024-03-08T15:21:33;14.70;99.90
32400;DHT22;45045;45.440;9.178;2024-03-08T15:24:00;14.30;99.90
32400;DHT22;45045;45.440;9.178;2024-03-08T15:26:30;14.10;99.90
32400;DHT22;45045;45.440;9.178;2024-03-08T15:28:57;14.10;99.90
32400;DHT22;45045;45.440;9.178;2024-03-08T15:31:23;13.90;99.90
32400;DHT22;45045;45.440;9.178;2024-03-08T15:33:52;13.80;99.90
32400;DHT22;45045;45.440;9.178;2024-03-08T15:36:29;13.80;99.90
32400;DHT22;45045;45.440;9.178;2024-03-08T15:38:57;13.80;99.90
32400;DHT22;45045;45.440;9.178;2024-03-08T15:41:22;13.70;99.90
32400;DHT22;45045;45.440;9.178;2024-03-08T15:43:48;13.60;99.90